MSC Ingrid — HOHA — position and weather

sailwx.info

Track history (hours):
 
Tides and Currents Weather Stations Pressure Air Temp Water Temp Dewpoint Dewpoint Depression Visibility Wind Speed Wind Dir Waves Ship Positions

MSC Ingrid

Last reported at 2016-Jul-29 22:22 UTC. Time now 2016-Jul-31 03:38 UTC.
Position N 39°35' E 024°15'.

Length 294 m; draft 9.2 m.

Type: Ship (hazmat cat A). MMSI: 354505000.

Date/timePositionNaut miles runAvg speedWind from/ knotsBaromVisibWave heightAir tempDewpointWater temp
2016-Jul-29 22:22N 39°35' E 024°15'1618.4
2016-Jul-29 21:32N 39°41' E 023°56'5317.0
2016-Jul-29 18:23N 40°12' E 022°60'1518.4
2016-Jul-29 17:33N 40°24' E 022°46'1414.3
2016-Jul-29 16:33N 40°37' E 022°54'1 1.3
2016-Jul-29 15:33N 40°38' E 022°54'0 0.0
2016-Jul-29 14:33N 40°38' E 022°54'0 0.0
2016-Jul-29 13:24N 40°38' E 022°54'0 0.0
2016-Jul-29 12:24N 40°38' E 022°54'0 0.0
2016-Jul-29 11:24N 40°38' E 022°54'0 0.0
2016-Jul-29 10:27N 40°38' E 022°54'0 0.0
2016-Jul-29 09:27N 40°38' E 022°54'0 0.0
2016-Jul-29 08:27N 40°38' E 022°54'0 0.0
2016-Jul-29 07:27N 40°38' E 022°54'0 0.0
2016-Jul-29 06:27N 40°38' E 022°54'0 0.0
2016-Jul-29 02:33N 40°38' E 022°54'0 0.0
2016-Jul-29 01:33N 40°38' E 022°54'0 0.0
2016-Jul-29 00:33N 40°38' E 022°54'0 0.0
2016-Jul-28 23:24N 40°38' E 022°54'0 0.0
2016-Jul-28 22:23N 40°38' E 022°54'0 0.0
2016-Jul-28 21:26N 40°38' E 022°54'0 0.0
2016-Jul-28 20:26N 40°38' E 022°54'0 0.0
2016-Jul-28 19:26N 40°38' E 022°54'0 0.0
2016-Jul-28 18:11N 40°38' E 022°54'0 0.0
2016-Jul-28 17:26N 40°38' E 022°54'0 0.0
2016-Jul-28 16:29N 40°38' E 022°54'0 0.0
2016-Jul-28 15:29N 40°38' E 022°54'0 0.0
2016-Jul-28 14:29N 40°38' E 022°54'0 0.0
2016-Jul-28 13:29N 40°38' E 022°54'0 0.0
2016-Jul-28 12:29N 40°38' E 022°54'0 0.0
2016-Jul-28 11:32N 40°38' E 022°54'0 0.0
2016-Jul-28 10:32N 40°38' E 022°54'0 0.0
2016-Jul-28 09:32N 40°38' E 022°54'0 0.0
2016-Jul-28 08:17N 40°38' E 022°54'0 0.0
2016-Jul-28 07:32N 40°38' E 022°54'0 0.0
2016-Jul-28 06:32N 40°38' E 022°54'0 0.0
2016-Jul-28 05:32N 40°38' E 022°54'0 0.0
2016-Jul-28 04:33N 40°38' E 022°54'4 3.9
2016-Jul-28 03:33N 40°34' E 022°53'4 3.7
2016-Jul-28 02:33N 40°32' E 022°50'7 7.2
2016-Jul-28 01:33N 40°25' E 022°46'9 9.2
2016-Jul-28 00:33N 40°17' E 022°53'5711.4
2016-Jul-27 19:32N 39°42' E 023°52'1212.3
2016-Jul-27 18:33N 39°38' E 024°07'1211.8
2016-Jul-27 17:32N 39°31' E 024°20'7111.5
2016-Jul-27 11:21N 38°23' E 024°44'2915.1
2016-Jul-27 09:27N 37°55' E 024°34'1617.6
2016-Jul-27 08:31N 37°44' E 024°19'1717.0
2016-Jul-27 07:33N 37°36' E 024°00'1616.0
2016-Jul-27 06:33N 37°41' E 023°42'1414.4
2016-Jul-27 05:33N 37°55' E 023°37'2 2.5
2016-Jul-27 04:33N 37°57' E 023°35'0 0.0
2016-Jul-27 03:33N 37°57' E 023°35'0 0.0
2016-Jul-27 02:33N 37°57' E 023°35'0 0.0
2016-Jul-27 01:33N 37°57' E 023°35'0 0.0
2016-Jul-27 00:32N 37°57' E 023°35'0 0.0
2016-Jul-26 23:32N 37°57' E 023°35'0 0.0
2016-Jul-26 22:33N 37°57' E 023°35'0 0.0
2016-Jul-26 21:32N 37°57' E 023°35'0 0.0
2016-Jul-26 20:32N 37°57' E 023°35'0 0.0
2016-Jul-26 19:32N 37°57' E 023°35'0 0.0
2016-Jul-26 18:32N 37°57' E 023°35'0 0.0
2016-Jul-26 17:32N 37°57' E 023°35'0 0.0
2016-Jul-26 16:32N 37°57' E 023°35'0 0.0
2016-Jul-26 15:32N 37°57' E 023°35'0 0.0
2016-Jul-26 14:32N 37°57' E 023°35'0 0.0
2016-Jul-26 13:32N 37°57' E 023°35'0 0.0
2016-Jul-26 12:32N 37°57' E 023°35'0 0.0
2016-Jul-26 11:32N 37°57' E 023°35'0 0.0
2016-Jul-26 10:32N 37°57' E 023°35'0 0.0
2016-Jul-26 09:32N 37°57' E 023°35'0 0.0
2016-Jul-26 08:32N 37°57' E 023°35'0 0.0
2016-Jul-26 07:32N 37°57' E 023°35'2 2.4
2016-Jul-26 06:34N 37°55' E 023°36'4 3.8
2016-Jul-26 05:34N 37°51' E 023°35'0 0.2
2016-Jul-26 04:34N 37°51' E 023°35'0 0.2
2016-Jul-26 03:34N 37°51' E 023°36'0 0.5
2016-Jul-26 02:33N 37°51' E 023°35'0 0.3
2016-Jul-26 01:33N 37°51' E 023°35'1 1.1
2016-Jul-26 00:33N 37°51' E 023°37'8 8.1
2016-Jul-25 23:33N 37°44' E 023°43'8 7.8
2016-Jul-25 22:33N 37°36' E 023°45'9 9.0
2016-Jul-25 21:33N 37°28' E 023°43'9 9.4
2016-Jul-25 20:33N 37°18' E 023°41'10 9.9
2016-Jul-25 19:33N 37°09' E 023°37'10 9.8
2016-Jul-25 18:33N 36°59' E 023°35'10 9.6
2016-Jul-25 17:33N 36°50' E 023°32'10 9.7
2016-Jul-25 16:33N 36°42' E 023°25'35416.0
2016-Jul-24 18:30N 37°45' E 016°09'1414.9
2016-Jul-24 17:33N 37°48' E 015°52'1414.4
2016-Jul-24 16:34N 37°55' E 015°36'1514.9
2016-Jul-24 15:34N 38°10' E 015°35'1413.7
2016-Jul-24 14:34N 38°22' E 015°45'9 9.3
2016-Jul-24 13:33N 38°27' E 015°54'0 0.0
2016-Jul-24 12:32N 38°27' E 015°54'0 0.0
2016-Jul-24 11:32N 38°27' E 015°54'0 0.0
2016-Jul-24 10:23N 38°27' E 015°54'0 0.0
2016-Jul-24 09:32N 38°27' E 015°54'0 0.0
2016-Jul-24 08:32N 38°27' E 015°54'0 0.0
2016-Jul-24 07:32N 38°27' E 015°54'0 0.0
2016-Jul-24 06:32N 38°27' E 015°54'0 0.0
2016-Jul-24 05:32N 38°27' E 015°54'0 0.0
2016-Jul-24 04:29N 38°27' E 015°54'0 0.0
2016-Jul-24 03:20N 38°27' E 015°54'0 0.0
2016-Jul-24 02:32N 38°27' E 015°54'0 0.0
2016-Jul-24 01:29N 38°27' E 015°54'0 0.0
2016-Jul-24 00:29N 38°27' E 015°54'0 0.0
2016-Jul-23 23:32N 38°27' E 015°54'2 2.4
2016-Jul-23 22:33N 38°27' E 015°51'4 4.3
2016-Jul-23 21:33N 38°29' E 015°46'1 1.2
2016-Jul-23 20:33N 38°30' E 015°45'0 0.3
2016-Jul-23 19:33N 38°29' E 015°46'0 0.2
2016-Jul-23 18:33N 38°29' E 015°46'0 0.1
2016-Jul-23 17:33N 38°29' E 015°46'0 0.1
2016-Jul-23 16:33N 38°29' E 015°46'2 1.8
2016-Jul-23 15:33N 38°28' E 015°48'7 6.6
2016-Jul-23 14:33N 38°26' E 015°40'7 7.5
2016-Jul-23 13:33N 38°24' E 015°31'9 8.9
2016-Jul-23 12:33N 38°22' E 015°20'9 8.7
2016-Jul-23 11:33N 38°20' E 015°09'9 8.5
2016-Jul-23 10:33N 38°19' E 014°58'1010.4
2016-Jul-23 09:33N 38°18' E 014°45'1312.7
2016-Jul-23 08:33N 38°20' E 014°29'1414.5
2016-Jul-23 07:34N 38°21' E 014°10'1716.9
2016-Jul-23 06:33N 38°23' E 013°49'3617.9
2016-Jul-23 04:34N 38°26' E 013°03'1918.5
2016-Jul-23 03:33N 38°27' E 012°40'1918.6
2016-Jul-23 02:33N 38°29' E 012°16'1818.3
2016-Jul-23 01:33N 38°29' E 011°53'1918.7
2016-Jul-23 00:33N 38°25' E 011°30'1918.8
2016-Jul-22 23:33N 38°21' E 011°06'1918.8
2016-Jul-22 22:33N 38°17' E 010°43'1818.3
2016-Jul-22 21:33N 38°13' E 010°20'1818.1
2016-Jul-22 20:33N 38°10' E 009°58'1817.9
2016-Jul-22 19:33N 38°06' E 009°35'1817.7
2016-Jul-22 18:33N 38°02' E 009°13'1817.7
2016-Jul-22 17:33N 37°59' E 008°51'13018.3
2016-Jul-22 10:26N 37°35' E 006°09'1718.9
2016-Jul-22 09:31N 37°31' E 005°48'1819.1
2016-Jul-22 08:33N 37°29' E 005°25'1919.1
2016-Jul-22 07:33N 37°25' E 005°01'8219.0
2016-Jul-22 03:15N 37°11' E 003°20'1418.8
2016-Jul-22 02:32N 37°08' E 003°03'1818.6
2016-Jul-22 01:33N 37°05' E 002°41'1918.7
2016-Jul-22 00:33N 37°01' E 002°18'1918.7
2016-Jul-21 23:33N 36°58' E 001°55'1919.0
2016-Jul-21 22:33N 36°54' E 001°32'1918.9
2016-Jul-21 21:33N 36°50' E 001°09'1919.0
2016-Jul-21 20:33N 36°46' E 000°45'1918.6
2016-Jul-21 19:33N 36°44' E 000°22'1918.8
2016-Jul-21 18:33N 36°41' W 000°01'1918.9
2016-Jul-21 17:33N 36°37' W 000°24'1918.9
2016-Jul-21 16:33N 36°34' W 000°47'1918.8
2016-Jul-21 15:32N 36°31' W 001°11'3618.2
2016-Jul-21 13:33N 36°24' W 001°55'1817.7
2016-Jul-21 12:31N 36°21' W 002°17'14217.4
2016-Jul-21 04:22N 35°58' W 005°11'1518.4
2016-Jul-21 03:33N 35°57' W 005°29'8116.1
2016-Jul-20 22:33N 36°06' W 007°08'1716.6
2016-Jul-20 21:34N 36°10' W 007°28'1716.7
2016-Jul-20 20:33N 36°14' W 007°48'1717.2
2016-Jul-20 19:33N 36°19' W 008°09'1817.6
2016-Jul-20 18:33N 36°23' W 008°30'1817.5
2016-Jul-20 17:33N 36°27' W 008°51'1818.5
2016-Jul-20 16:33N 36°33' W 009°13'1918.7
2016-Jul-20 15:33N 36°45' W 009°31'1818.3
2016-Jul-20 14:33N 37°03' W 009°38'1818.3
2016-Jul-20 13:33N 37°20' W 009°43'1918.4
2016-Jul-20 12:30N 37°39' W 009°48'1717.9
2016-Jul-20 11:32N 37°56' W 009°52'1818.4
2016-Jul-20 10:33N 38°14' W 009°57'1918.9
2016-Jul-20 09:32N 38°33' W 010°03'1818.4
2016-Jul-20 08:33N 38°50' W 010°07'1918.8
2016-Jul-20 07:32N 39°09' W 010°06'  
Track history (hours):
 
Tides and Currents Weather Stations Pressure Air Temp Water Temp Dewpoint Dewpoint Depression Visibility Wind Speed Wind Dir Waves Ship Positions

MSC Ingrid

Last reported at 2016-Jul-29 22:22 UTC. Time now 2016-Jul-31 03:38 UTC.
Position N 39°35' E 024°15'.

Length 294 m; draft 9.2 m.

Type: Ship (hazmat cat A). MMSI: 354505000.

Date/timePositionNaut miles runAvg speedWind from/ knotsBaromVisibWave heightAir tempDewpointWater temp
2016-Jul-29 22:22N 39°35' E 024°15'1618.4
2016-Jul-29 21:32N 39°41' E 023°56'5317.0
2016-Jul-29 18:23N 40°12' E 022°60'1518.4
2016-Jul-29 17:33N 40°24' E 022°46'1414.3
2016-Jul-29 16:33N 40°37' E 022°54'1 1.3
2016-Jul-29 15:33N 40°38' E 022°54'0 0.0
2016-Jul-29 14:33N 40°38' E 022°54'0 0.0
2016-Jul-29 13:24N 40°38' E 022°54'0 0.0
2016-Jul-29 12:24N 40°38' E 022°54'0 0.0
2016-Jul-29 11:24N 40°38' E 022°54'0 0.0
2016-Jul-29 10:27N 40°38' E 022°54'0 0.0
2016-Jul-29 09:27N 40°38' E 022°54'0 0.0
2016-Jul-29 08:27N 40°38' E 022°54'0 0.0
2016-Jul-29 07:27N 40°38' E 022°54'0 0.0
2016-Jul-29 06:27N 40°38' E 022°54'0 0.0
2016-Jul-29 02:33N 40°38' E 022°54'0 0.0
2016-Jul-29 01:33N 40°38' E 022°54'0 0.0
2016-Jul-29 00:33N 40°38' E 022°54'0 0.0
2016-Jul-28 23:24N 40°38' E 022°54'0 0.0
2016-Jul-28 22:23N 40°38' E 022°54'0 0.0
2016-Jul-28 21:26N 40°38' E 022°54'0 0.0
2016-Jul-28 20:26N 40°38' E 022°54'0 0.0
2016-Jul-28 19:26N 40°38' E 022°54'0 0.0
2016-Jul-28 18:11N 40°38' E 022°54'0 0.0
2016-Jul-28 17:26N 40°38' E 022°54'0 0.0
2016-Jul-28 16:29N 40°38' E 022°54'0 0.0
2016-Jul-28 15:29N 40°38' E 022°54'0 0.0
2016-Jul-28 14:29N 40°38' E 022°54'0 0.0
2016-Jul-28 13:29N 40°38' E 022°54'0 0.0
2016-Jul-28 12:29N 40°38' E 022°54'0 0.0
2016-Jul-28 11:32N 40°38' E 022°54'0 0.0
2016-Jul-28 10:32N 40°38' E 022°54'0 0.0
2016-Jul-28 09:32N 40°38' E 022°54'0 0.0
2016-Jul-28 08:17N 40°38' E 022°54'0 0.0
2016-Jul-28 07:32N 40°38' E 022°54'0 0.0
2016-Jul-28 06:32N 40°38' E 022°54'0 0.0
2016-Jul-28 05:32N 40°38' E 022°54'0 0.0
2016-Jul-28 04:33N 40°38' E 022°54'4 3.9
2016-Jul-28 03:33N 40°34' E 022°53'4 3.7
2016-Jul-28 02:33N 40°32' E 022°50'7 7.2
2016-Jul-28 01:33N 40°25' E 022°46'9 9.2
2016-Jul-28 00:33N 40°17' E 022°53'5711.4
2016-Jul-27 19:32N 39°42' E 023°52'1212.3
2016-Jul-27 18:33N 39°38' E 024°07'1211.8
2016-Jul-27 17:32N 39°31' E 024°20'7111.5
2016-Jul-27 11:21N 38°23' E 024°44'2915.1
2016-Jul-27 09:27N 37°55' E 024°34'1617.6
2016-Jul-27 08:31N 37°44' E 024°19'1717.0
2016-Jul-27 07:33N 37°36' E 024°00'1616.0
2016-Jul-27 06:33N 37°41' E 023°42'1414.4
2016-Jul-27 05:33N 37°55' E 023°37'2 2.5
2016-Jul-27 04:33N 37°57' E 023°35'0 0.0
2016-Jul-27 03:33N 37°57' E 023°35'0 0.0
2016-Jul-27 02:33N 37°57' E 023°35'0 0.0
2016-Jul-27 01:33N 37°57' E 023°35'0 0.0
2016-Jul-27 00:32N 37°57' E 023°35'0 0.0
2016-Jul-26 23:32N 37°57' E 023°35'0 0.0
2016-Jul-26 22:33N 37°57' E 023°35'0 0.0
2016-Jul-26 21:32N 37°57' E 023°35'0 0.0
2016-Jul-26 20:32N 37°57' E 023°35'0 0.0
2016-Jul-26 19:32N 37°57' E 023°35'0 0.0
2016-Jul-26 18:32N 37°57' E 023°35'0 0.0
2016-Jul-26 17:32N 37°57' E 023°35'0 0.0
2016-Jul-26 16:32N 37°57' E 023°35'0 0.0
2016-Jul-26 15:32N 37°57' E 023°35'0 0.0
2016-Jul-26 14:32N 37°57' E 023°35'0 0.0
2016-Jul-26 13:32N 37°57' E 023°35'0 0.0
2016-Jul-26 12:32N 37°57' E 023°35'0 0.0
2016-Jul-26 11:32N 37°57' E 023°35'0 0.0
2016-Jul-26 10:32N 37°57' E 023°35'0 0.0
2016-Jul-26 09:32N 37°57' E 023°35'0 0.0
2016-Jul-26 08:32N 37°57' E 023°35'0 0.0
2016-Jul-26 07:32N 37°57' E 023°35'2 2.4
2016-Jul-26 06:34N 37°55' E 023°36'4 3.8
2016-Jul-26 05:34N 37°51' E 023°35'0 0.2
2016-Jul-26 04:34N 37°51' E 023°35'0 0.2
2016-Jul-26 03:34N 37°51' E 023°36'0 0.5
2016-Jul-26 02:33N 37°51' E 023°35'0 0.3
2016-Jul-26 01:33N 37°51' E 023°35'1 1.1
2016-Jul-26 00:33N 37°51' E 023°37'8 8.1
2016-Jul-25 23:33N 37°44' E 023°43'8 7.8
2016-Jul-25 22:33N 37°36' E 023°45'9 9.0
2016-Jul-25 21:33N 37°28' E 023°43'9 9.4
2016-Jul-25 20:33N 37°18' E 023°41'10 9.9
2016-Jul-25 19:33N 37°09' E 023°37'10 9.8
2016-Jul-25 18:33N 36°59' E 023°35'10 9.6
2016-Jul-25 17:33N 36°50' E 023°32'10 9.7
2016-Jul-25 16:33N 36°42' E 023°25'35416.0
2016-Jul-24 18:30N 37°45' E 016°09'1414.9
2016-Jul-24 17:33N 37°48' E 015°52'1414.4
2016-Jul-24 16:34N 37°55' E 015°36'1514.9
2016-Jul-24 15:34N 38°10' E 015°35'1413.7
2016-Jul-24 14:34N 38°22' E 015°45'9 9.3
2016-Jul-24 13:33N 38°27' E 015°54'0 0.0
2016-Jul-24 12:32N 38°27' E 015°54'0 0.0
2016-Jul-24 11:32N 38°27' E 015°54'0 0.0
2016-Jul-24 10:23N 38°27' E 015°54'0 0.0
2016-Jul-24 09:32N 38°27' E 015°54'0 0.0
2016-Jul-24 08:32N 38°27' E 015°54'0 0.0
2016-Jul-24 07:32N 38°27' E 015°54'0 0.0
2016-Jul-24 06:32N 38°27' E 015°54'0 0.0
2016-Jul-24 05:32N 38°27' E 015°54'0 0.0
2016-Jul-24 04:29N 38°27' E 015°54'0 0.0
2016-Jul-24 03:20N 38°27' E 015°54'0 0.0
2016-Jul-24 02:32N 38°27' E 015°54'0 0.0
2016-Jul-24 01:29N 38°27' E 015°54'0 0.0
2016-Jul-24 00:29N 38°27' E 015°54'0 0.0
2016-Jul-23 23:32N 38°27' E 015°54'2 2.4
2016-Jul-23 22:33N 38°27' E 015°51'4 4.3
2016-Jul-23 21:33N 38°29' E 015°46'1 1.2
2016-Jul-23 20:33N 38°30' E 015°45'0 0.3
2016-Jul-23 19:33N 38°29' E 015°46'0 0.2
2016-Jul-23 18:33N 38°29' E 015°46'0 0.1
2016-Jul-23 17:33N 38°29' E 015°46'0 0.1
2016-Jul-23 16:33N 38°29' E 015°46'2 1.8
2016-Jul-23 15:33N 38°28' E 015°48'7 6.6
2016-Jul-23 14:33N 38°26' E 015°40'7 7.5
2016-Jul-23 13:33N 38°24' E 015°31'9 8.9
2016-Jul-23 12:33N 38°22' E 015°20'9 8.7
2016-Jul-23 11:33N 38°20' E 015°09'9 8.5
2016-Jul-23 10:33N 38°19' E 014°58'1010.4
2016-Jul-23 09:33N 38°18' E 014°45'1312.7
2016-Jul-23 08:33N 38°20' E 014°29'1414.5
2016-Jul-23 07:34N 38°21' E 014°10'1716.9
2016-Jul-23 06:33N 38°23' E 013°49'3617.9
2016-Jul-23 04:34N 38°26' E 013°03'1918.5
2016-Jul-23 03:33N 38°27' E 012°40'1918.6
2016-Jul-23 02:33N 38°29' E 012°16'1818.3
2016-Jul-23 01:33N 38°29' E 011°53'1918.7
2016-Jul-23 00:33N 38°25' E 011°30'1918.8
2016-Jul-22 23:33N 38°21' E 011°06'1918.8
2016-Jul-22 22:33N 38°17' E 010°43'1818.3
2016-Jul-22 21:33N 38°13' E 010°20'1818.1
2016-Jul-22 20:33N 38°10' E 009°58'1817.9
2016-Jul-22 19:33N 38°06' E 009°35'1817.7
2016-Jul-22 18:33N 38°02' E 009°13'1817.7
2016-Jul-22 17:33N 37°59' E 008°51'13018.3
2016-Jul-22 10:26N 37°35' E 006°09'1718.9
2016-Jul-22 09:31N 37°31' E 005°48'1819.1
2016-Jul-22 08:33N 37°29' E 005°25'1919.1
2016-Jul-22 07:33N 37°25' E 005°01'8219.0
2016-Jul-22 03:15N 37°11' E 003°20'1418.8
2016-Jul-22 02:32N 37°08' E 003°03'1818.6
2016-Jul-22 01:33N 37°05' E 002°41'1918.7
2016-Jul-22 00:33N 37°01' E 002°18'1918.7
2016-Jul-21 23:33N 36°58' E 001°55'1919.0
2016-Jul-21 22:33N 36°54' E 001°32'1918.9
2016-Jul-21 21:33N 36°50' E 001°09'1919.0
2016-Jul-21 20:33N 36°46' E 000°45'1918.6
2016-Jul-21 19:33N 36°44' E 000°22'1918.8
2016-Jul-21 18:33N 36°41' W 000°01'1918.9
2016-Jul-21 17:33N 36°37' W 000°24'1918.9
2016-Jul-21 16:33N 36°34' W 000°47'1918.8
2016-Jul-21 15:32N 36°31' W 001°11'3618.2
2016-Jul-21 13:33N 36°24' W 001°55'1817.7
2016-Jul-21 12:31N 36°21' W 002°17'14217.4
2016-Jul-21 04:22N 35°58' W 005°11'1518.4
2016-Jul-21 03:33N 35°57' W 005°29'8116.1
2016-Jul-20 22:33N 36°06' W 007°08'1716.6
2016-Jul-20 21:34N 36°10' W 007°28'1716.7
2016-Jul-20 20:33N 36°14' W 007°48'1717.2
2016-Jul-20 19:33N 36°19' W 008°09'1817.6
2016-Jul-20 18:33N 36°23' W 008°30'1817.5
2016-Jul-20 17:33N 36°27' W 008°51'1818.5
2016-Jul-20 16:33N 36°33' W 009°13'1918.7
2016-Jul-20 15:33N 36°45' W 009°31'1818.3
2016-Jul-20 14:33N 37°03' W 009°38'1818.3
2016-Jul-20 13:33N 37°20' W 009°43'1918.4
2016-Jul-20 12:30N 37°39' W 009°48'1717.9
2016-Jul-20 11:32N 37°56' W 009°52'1818.4
2016-Jul-20 10:33N 38°14' W 009°57'1918.9
2016-Jul-20 09:32N 38°33' W 010°03'1818.4
2016-Jul-20 08:33N 38°50' W 010°07'1918.8
2016-Jul-20 07:32N 39°09' W 010°06'  

Dump ship's entire track history